Time;durP1;ratioP1;P1;durP2;ratioP2;P2;SDS_P1;SDS_P2;PMS_P1;PMS_P2;Temp;Humidity;BMP_temperature;BMP_pressure;BME280_temperature;BME280_humidity;BME280_pressure;Samples;Min_cycle;Max_cycle;Signal;HPM_P1;HPM_P2
2023/12/08 00:00:50;;;;;;;10.37;5.97;;;;;;;;;;4982214;28;88043;-65
2023/12/08 00:03:18;;;;;;;7.33;4.70;;;;;;;;;;4979147;28;90543;-65
2023/12/08 00:05:47;;;;;;;9.30;5.80;;;;;;;;;;4978854;28;89245;-65
2023/12/08 00:08:15;;;;;;;10.47;5.80;;;;;;;;;;4980594;28;88821;-64
2023/12/08 00:10:43;;;;;;;9.50;5.33;;;;;;;;;;4968901;28;88148;-65
2023/12/08 00:13:13;;;;;;;6.30;4.43;;;;;;;;;;4984899;28;89735;-65
2023/12/08 00:15:42;;;;;;;8.10;5.30;;;;;;;;;;4982435;28;87986;-66
2023/12/08 00:18:11;;;;;;;10.70;5.10;;;;;;;;;;4982438;28;88031;-65
2023/12/08 00:20:43;;;;;;;7.17;4.47;;;;;;;;;;4983388;28;87613;-65
2023/12/08 00:23:14;;;;;;;7.23;5.20;;;;;;;;;;4982327;28;88289;-66
2023/12/08 00:25:43;;;;;;;6.83;4.90;;;;;;;;;;4982180;28;89278;-65
2023/12/08 00:28:12;;;;;;;8.47;4.03;;;;;;;;;;4982499;28;88709;-65
2023/12/08 00:30:42;;;;;;;6.57;4.13;;;;;;;;;;4983175;28;87748;-65
2023/12/08 00:33:10;;;;;;;8.93;5.13;;;;;;;;;;4982448;28;89632;-65
2023/12/08 00:35:40;;;;;;;8.47;4.93;;;;;;;;;;4986463;28;89047;-65
2023/12/08 00:38:11;;;;;;;8.07;4.10;;;;;;;;;;4979725;28;88894;-65
2023/12/08 00:40:39;;;;;;;7.13;4.43;;;;;;;;;;4982064;28;87717;-66
2023/12/08 00:43:09;;;;;;;7.30;4.17;;;;;;;;;;4984194;28;89781;-66
2023/12/08 00:45:37;;;;;;;5.93;3.43;;;;;;;;;;4992271;28;89212;-66
2023/12/08 00:48:07;;;;;;;4.10;3.30;;;;;;;;;;4982501;28;87746;-65
2023/12/08 00:50:36;;;;;;;5.53;2.93;;;;;;;;;;4966315;28;87631;-66
2023/12/08 00:53:04;;;;;;;3.80;3.33;;;;;;;;;;4989987;28;89813;-66
2023/12/08 00:55:35;;;;;;;3.63;3.03;;;;;;;;;;4998993;28;89119;-66
2023/12/08 00:58:03;;;;;;;4.33;2.90;;;;;;;;;;4982753;28;90151;-66
2023/12/08 01:00:32;;;;;;;5.93;3.83;;;;;;;;;;4982529;28;87695;-65
2023/12/08 01:03:00;;;;;;;3.17;2.63;;;;;;;;;;4983419;28;92448;-65
2023/12/08 01:05:30;;;;;;;3.57;2.97;;;;;;;;;;4981902;28;89210;-66
2023/12/08 01:07:59;;;;;;;3.77;3.00;;;;;;;;;;4982370;28;88240;-66
2023/12/08 01:10:27;;;;;;;3.50;2.70;;;;;;;;;;4982044;28;89003;-66
2023/12/08 01:12:55;;;;;;;3.70;2.70;;;;;;;;;;4982453;28;89701;-65
2023/12/08 01:15:24;;;;;;;4.27;2.80;;;;;;;;;;4982056;28;89416;-66
2023/12/08 01:17:52;;;;;;;2.83;2.50;;;;;;;;;;4981745;28;88925;-65
2023/12/08 01:20:21;;;;;;;3.43;2.67;;;;;;;;;;4982306;28;87717;-65
2023/12/08 01:22:52;;;;;;;4.47;2.83;;;;;;;;;;4981383;28;89676;-65
2023/12/08 01:25:20;;;;;;;3.10;2.40;;;;;;;;;;4987530;28;89061;-65
2023/12/08 01:27:49;;;;;;;4.67;3.20;;;;;;;;;;4980804;28;89261;-66
2023/12/08 01:30:19;;;;;;;3.00;2.17;;;;;;;;;;4982713;28;87403;-65
2023/12/08 01:32:47;;;;;;;3.77;2.97;;;;;;;;;;4982052;28;89656;-66
2023/12/08 01:35:16;;;;;;;4.13;2.37;;;;;;;;;;4981127;28;87968;-65
2023/12/08 01:37:44;;;;;;;3.80;2.13;;;;;;;;;;4981504;28;88808;-65
2023/12/08 01:40:16;;;;;;;3.10;2.23;;;;;;;;;;4990044;28;87641;-65
2023/12/08 01:42:47;;;;;;;3.63;2.20;;;;;;;;;;4980847;28;89544;-66
2023/12/08 01:45:16;;;;;;;3.73;1.97;;;;;;;;;;4981511;28;89507;-66
2023/12/08 01:47:45;;;;;;;4.30;2.47;;;;;;;;;;4980564;28;89394;-66
2023/12/08 01:50:13;;;;;;;5.20;2.00;;;;;;;;;;4982238;28;87547;-66
2023/12/08 01:52:42;;;;;;;2.30;2.10;;;;;;;;;;4997971;28;89807;-66
2023/12/08 01:55:10;;;;;;;2.57;1.90;;;;;;;;;;4986942;28;89034;-66
2023/12/08 01:57:41;;;;;;;1.97;1.73;;;;;;;;;;4982297;28;87498;-66
2023/12/08 02:00:10;;;;;;;3.53;1.83;;;;;;;;;;4981749;28;87487;-66
2023/12/08 02:02:38;;;;;;;2.00;1.80;;;;;;;;;;4980596;28;89675;-66
2023/12/08 02:05:11;;;;;;;2.43;1.47;;;;;;;;;;4981334;28;89087;-65
2023/12/08 02:07:39;;;;;;;1.60;1.50;;;;;;;;;;4977693;28;89195;-66
2023/12/08 02:10:08;;;;;;;3.80;1.70;;;;;;;;;;4981218;28;87641;-66
2023/12/08 02:12:37;;;;;;;1.87;1.47;;;;;;;;;;4980740;28;89905;-65
2023/12/08 02:15:08;;;;;;;3.13;1.90;;;;;;;;;;4980140;28;89031;-66
2023/12/08 02:17:39;;;;;;;2.47;1.80;;;;;;;;;;4981585;28;89873;-66
2023/12/08 02:20:11;;;;;;;2.27;1.60;;;;;;;;;;4981402;28;87506;-66
2023/12/08 02:22:40;;;;;;;1.60;1.37;;;;;;;;;;4978266;28;89761;-65
2023/12/08 02:25:10;;;;;;;1.90;1.43;;;;;;;;;;4979966;28;90067;-66
2023/12/08 02:27:38;;;;;;;1.33;1.23;;;;;;;;;;4984687;28;88934;-66
2023/12/08 02:30:07;;;;;;;2.10;1.90;;;;;;;;;;4981203;28;87642;-66
2023/12/08 02:32:36;;;;;;;1.80;1.70;;;;;;;;;;4978850;28;93049;-66
2023/12/08 02:35:05;;;;;;;3.23;1.63;;;;;;;;;;4979792;28;89092;-65
2023/12/08 02:37:37;;;;;;;2.43;1.80;;;;;;;;;;4975965;28;88812;-66
2023/12/08 02:40:06;;;;;;;3.13;1.90;;;;;;;;;;4976954;28;87663;-65
2023/12/08 02:42:36;;;;;;;3.53;1.30;;;;;;;;;;4978341;28;92198;-66
2023/12/08 02:45:07;;;;;;;1.93;1.43;;;;;;;;;;4977919;28;89278;-66
2023/12/08 02:47:37;;;;;;;4.33;1.57;;;;;;;;;;4978198;28;88486;-66
2023/12/08 02:50:06;;;;;;;2.70;1.50;;;;;;;;;;4979260;28;87702;-65
2023/12/08 02:52:35;;;;;;;2.47;1.80;;;;;;;;;;4977306;28;89767;-66
2023/12/08 02:55:05;;;;;;;1.97;1.57;;;;;;;;;;4978188;28;88090;-66
2023/12/08 02:57:33;;;;;;;1.67;1.50;;;;;;;;;;4976765;28;88068;-66
2023/12/08 03:00:04;;;;;;;1.83;1.70;;;;;;;;;;4979073;28;87865;-66
2023/12/08 03:02:32;;;;;;;1.93;1.47;;;;;;;;;;4977643;28;89838;-66
2023/12/08 03:05:01;;;;;;;1.77;1.40;;;;;;;;;;4977949;28;87950;-66
2023/12/08 03:07:30;;;;;;;1.70;1.53;;;;;;;;;;4977748;28;90305;-66
2023/12/08 03:10:00;;;;;;;1.80;1.30;;;;;;;;;;4978757;28;87434;-66
2023/12/08 03:12:29;;;;;;;3.73;1.77;;;;;;;;;;4984548;28;89765;-66
2023/12/08 03:14:57;;;;;;;1.67;1.10;;;;;;;;;;4997684;28;91968;-66
2023/12/08 03:17:28;;;;;;;1.90;1.30;;;;;;;;;;4981934;28;89449;-66
2023/12/08 03:19:59;;;;;;;1.67;1.20;;;;;;;;;;4979480;28;87553;-66
2023/12/08 03:22:27;;;;;;;1.80;1.13;;;;;;;;;;4997724;28;89722;-65
2023/12/08 03:24:57;;;;;;;2.13;1.87;;;;;;;;;;4983817;28;89203;-65
2023/12/08 03:27:27;;;;;;;1.90;1.40;;;;;;;;;;4979031;28;87622;-66
2023/12/08 03:29:57;;;;;;;3.13;1.47;;;;;;;;;;4977897;28;87649;-66
2023/12/08 03:32:27;;;;;;;1.90;1.70;;;;;;;;;;4979142;28;89590;-66
2023/12/08 03:34:58;;;;;;;1.27;1.13;;;;;;;;;;4990224;28;92480;-65
2023/12/08 03:37:27;;;;;;;1.67;1.40;;;;;;;;;;4995063;28;87339;-65
2023/12/08 03:39:55;;;;;;;1.20;1.10;;;;;;;;;;4985136;28;87614;-66
2023/12/08 03:42:25;;;;;;;2.33;1.67;;;;;;;;;;4985516;28;89872;-66
2023/12/08 03:44:56;;;;;;;1.40;1.10;;;;;;;;;;4976574;28;89123;-66
2023/12/08 03:47:24;;;;;;;1.40;1.30;;;;;;;;;;4979222;28;89544;-67
2023/12/08 03:49:55;;;;;;;2.03;1.43;;;;;;;;;;4980285;28;89681;-67
2023/12/08 03:52:24;;;;;;;2.07;1.27;;;;;;;;;;4980613;28;89765;-66
2023/12/08 03:54:54;;;;;;;1.57;0.93;;;;;;;;;;4981254;28;89075;-65
2023/12/08 03:57:23;;;;;;;2.00;1.80;;;;;;;;;;4980270;28;88433;-65
2023/12/08 03:59:51;;;;;;;1.23;1.10;;;;;;;;;;4980037;28;87314;-65
2023/12/08 04:02:20;;;;;;;1.57;1.20;;;;;;;;;;4980562;28;92820;-65
2023/12/08 04:04:50;;;;;;;4.07;1.57;;;;;;;;;;4992688;28;89199;-65
2023/12/08 04:07:25;;;;;;;2.20;1.30;;;;;;;;;;4993800;28;89043;-65
2023/12/08 04:09:57;;;;;;;1.50;1.40;;;;;;;;;;4979560;28;88127;-65
2023/12/08 04:12:28;;;;;;;2.10;1.20;;;;;;;;;;4978250;28;89524;-65
2023/12/08 04:14:56;;;;;;;1.37;1.27;;;;;;;;;;4982919;28;89058;-65
2023/12/08 04:17:24;;;;;;;1.90;1.43;;;;;;;;;;4982931;28;89349;-66
2023/12/08 04:19:55;;;;;;;1.43;1.20;;;;;;;;;;4985258;28;87628;-66
2023/12/08 04:22:26;;;;;;;0.93;0.90;;;;;;;;;;4983117;28;92993;-65
2023/12/08 04:24:55;;;;;;;1.17;1.07;;;;;;;;;;4983388;28;89199;-65
2023/12/08 04:27:23;;;;;;;1.50;1.10;;;;;;;;;;4989471;28;87340;-66
2023/12/08 04:29:52;;;;;;;7.60;1.40;;;;;;;;;;4986499;28;87317;-66
2023/12/08 04:32:21;;;;;;;2.33;1.93;;;;;;;;;;4980695;28;89526;-66
2023/12/08 04:34:50;;;;;;;1.40;1.30;;;;;;;;;;4982925;28;89249;-65
2023/12/08 04:37:20;;;;;;;3.30;1.50;;;;;;;;;;4982109;28;88493;-67
2023/12/08 04:39:50;;;;;;;2.40;1.50;;;;;;;;;;4983488;28;87595;-67
2023/12/08 04:42:20;;;;;;;2.47;1.50;;;;;;;;;;4986402;28;90334;-67
2023/12/08 04:44:48;;;;;;;2.50;1.33;;;;;;;;;;4983233;28;89127;-67
2023/12/08 04:47:16;;;;;;;2.30;1.57;;;;;;;;;;4982220;28;88737;-67
2023/12/08 04:49:45;;;;;;;1.63;1.23;;;;;;;;;;4983347;28;87693;-67
2023/12/08 04:52:14;;;;;;;2.17;0.97;;;;;;;;;;4983340;28;92089;-67
2023/12/08 04:54:44;;;;;;;1.53;1.43;;;;;;;;;;4980534;28;89259;-67
2023/12/08 04:57:13;;;;;;;2.03;1.63;;;;;;;;;;4982572;28;88829;-67
2023/12/08 04:59:44;;;;;;;2.07;1.40;;;;;;;;;;4981799;28;87599;-67
2023/12/08 05:02:13;;;;;;;1.90;1.30;;;;;;;;;;4982912;28;89204;-67
2023/12/08 05:04:42;;;;;;;4.00;1.73;;;;;;;;;;4981432;28;89086;-67
2023/12/08 05:07:11;;;;;;;1.87;1.27;;;;;;;;;;4988212;28;88849;-67
2023/12/08 05:09:39;;;;;;;3.07;1.13;;;;;;;;;;4983926;28;87665;-66
2023/12/08 05:12:10;;;;;;;1.30;1.10;;;;;;;;;;4982908;28;89629;-67
2023/12/08 05:14:40;;;;;;;2.03;1.40;;;;;;;;;;4981678;28;89034;-67
2023/12/08 05:17:08;;;;;;;3.17;1.83;;;;;;;;;;4982449;28;88564;-67
2023/12/08 05:19:37;;;;;;;1.70;1.43;;;;;;;;;;4982801;28;87641;-66
2023/12/08 05:22:08;;;;;;;1.70;1.43;;;;;;;;;;4987912;28;89462;-65
2023/12/08 05:24:38;;;;;;;1.60;1.43;;;;;;;;;;5006142;28;91048;-66
2023/12/08 05:27:06;;;;;;;2.77;1.00;;;;;;;;;;5007430;28;87691;-65
2023/12/08 05:29:35;;;;;;;1.40;1.10;;;;;;;;;;5007631;28;86707;-66
2023/12/08 05:32:06;;;;;;;1.60;1.00;;;;;;;;;;5006212;28;88593;-66
2023/12/08 05:34:35;;;;;;;3.07;1.37;;;;;;;;;;5008841;28;88040;-66
2023/12/08 05:37:03;;;;;;;1.83;1.00;;;;;;;;;;4999599;28;87717;-64
2023/12/08 05:39:31;;;;;;;1.83;1.47;;;;;;;;;;4976210;28;87167;-66
2023/12/08 05:42:00;;;;;;;1.77;1.10;;;;;;;;;;4981914;28;89751;-67
2023/12/08 05:44:29;;;;;;;1.53;1.43;;;;;;;;;;4990004;28;89109;-66
2023/12/08 05:46:59;;;;;;;1.30;1.20;;;;;;;;;;4995103;28;88780;-67
2023/12/08 05:49:30;;;;;;;1.10;0.97;;;;;;;;;;4982413;28;89472;-67
2023/12/08 05:51:58;;;;;;;2.50;1.23;;;;;;;;;;4980194;28;89990;-66
2023/12/08 05:54:27;;;;;;;0.87;0.87;;;;;;;;;;4984737;28;88834;-67
2023/12/08 05:56:58;;;;;;;2.07;1.40;;;;;;;;;;4981944;28;88952;-67
2023/12/08 05:59:26;;;;;;;1.20;0.90;;;;;;;;;;4984854;28;87611;-66
2023/12/08 06:01:55;;;;;;;1.47;1.10;;;;;;;;;;4981776;28;89741;-67
2023/12/08 06:04:23;;;;;;;1.97;1.77;;;;;;;;;;4981137;28;89137;-67
2023/12/08 06:06:54;;;;;;;1.20;1.10;;;;;;;;;;4994614;28;88040;-67
2023/12/08 06:09:25;;;;;;;2.30;1.33;;;;;;;;;;4980383;28;87739;-66
2023/12/08 06:11:55;;;;;;;0.80;0.80;;;;;;;;;;4997889;28;89648;-66
2023/12/08 06:14:24;;;;;;;1.73;1.40;;;;;;;;;;4996685;28;89789;-66
2023/12/08 06:16:53;;;;;;;2.03;1.23;;;;;;;;;;4981005;28;88755;-67
2023/12/08 06:19:21;;;;;;;2.53;1.27;;;;;;;;;;4994236;28;87693;-67
2023/12/08 06:21:50;;;;;;;1.23;1.03;;;;;;;;;;4980703;28;89849;-67
2023/12/08 06:24:21;;;;;;;1.47;0.80;;;;;;;;;;4981427;28;89361;-67
2023/12/08 06:26:52;;;;;;;0.73;0.73;;;;;;;;;;4982317;28;88844;-67
2023/12/08 06:29:22;;;;;;;0.90;0.90;;;;;;;;;;4981675;28;87177;-67
2023/12/08 06:31:50;;;;;;;1.57;1.10;;;;;;;;;;4980929;28;92889;-67
2023/12/08 06:34:18;;;;;;;1.27;0.80;;;;;;;;;;4980185;28;91266;-66
2023/12/08 06:36:48;;;;;;;1.10;1.00;;;;;;;;;;4979733;28;88855;-66
2023/12/08 06:39:20;;;;;;;1.10;1.00;;;;;;;;;;4982023;28;87753;-67
2023/12/08 06:41:51;;;;;;;1.30;1.10;;;;;;;;;;4970270;28;92816;-66
2023/12/08 06:44:20;;;;;;;0.80;0.80;;;;;;;;;;4981256;28;89129;-66
2023/12/08 06:46:48;;;;;;;0.80;0.80;;;;;;;;;;4976962;28;87747;-67
2023/12/08 06:49:17;;;;;;;1.37;0.77;;;;;;;;;;4993871;28;87653;-66
2023/12/08 06:51:46;;;;;;;1.57;0.97;;;;;;;;;;4989120;28;89441;-67
2023/12/08 06:54:16;;;;;;;1.53;1.30;;;;;;;;;;4981714;28;89762;-67
2023/12/08 06:56:45;;;;;;;0.83;0.83;;;;;;;;;;4988796;28;87445;-67
2023/12/08 06:59:15;;;;;;;1.00;0.90;;;;;;;;;;4981248;28;87390;-66
2023/12/08 07:01:44;;;;;;;0.83;0.83;;;;;;;;;;4991602;28;90076;-66
2023/12/08 07:04:12;;;;;;;1.00;0.90;;;;;;;;;;4980284;28;87909;-66
2023/12/08 07:06:44;;;;;;;1.27;0.83;;;;;;;;;;4985830;28;90594;-66
2023/12/08 07:09:12;;;;;;;1.87;1.47;;;;;;;;;;4981914;28;88140;-66
2023/12/08 07:11:40;;;;;;;1.57;1.07;;;;;;;;;;4980838;28;89671;-66
2023/12/08 07:14:10;;;;;;;2.03;1.20;;;;;;;;;;4980903;28;87717;-67
2023/12/08 07:16:41;;;;;;;0.83;0.83;;;;;;;;;;4992318;28;88878;-66
2023/12/08 07:19:09;;;;;;;2.23;1.37;;;;;;;;;;4979676;28;87635;-66
2023/12/08 07:21:42;;;;;;;1.87;1.50;;;;;;;;;;4979063;28;88480;-66
2023/12/08 07:24:16;;;;;;;2.00;1.80;;;;;;;;;;4980602;28;89098;-66
2023/12/08 07:26:54;;;;;;;2.03;1.50;;;;;;;;;;4979195;28;89338;-67
2023/12/08 07:29:25;;;;;;;2.00;1.80;;;;;;;;;;4980929;28;87595;-67
2023/12/08 07:31:57;;;;;;;2.20;1.63;;;;;;;;;;4980194;28;89597;-67
2023/12/08 07:34:26;;;;;;;2.93;1.80;;;;;;;;;;4979552;28;91604;-66
2023/12/08 07:36:54;;;;;;;2.10;1.53;;;;;;;;;;4977445;28;89003;-67
2023/12/08 07:39:22;;;;;;;2.63;2.20;;;;;;;;;;4982277;28;87664;-67
2023/12/08 07:41:51;;;;;;;2.50;1.57;;;;;;;;;;4979401;28;89656;-66
2023/12/08 07:44:20;;;;;;;2.33;1.33;;;;;;;;;;4980563;28;89189;-67
2023/12/08 07:46:50;;;;;;;1.80;1.43;;;;;;;;;;4979009;28;88205;-66
2023/12/08 07:49:20;;;;;;;2.17;1.93;;;;;;;;;;4977566;28;87653;-65
2023/12/08 07:51:51;;;;;;;3.10;1.70;;;;;;;;;;4980441;28;89566;-65
2023/12/08 07:54:22;;;;;;;2.57;2.13;;;;;;;;;;4980381;28;89504;-65
2023/12/08 07:56:51;;;;;;;1.93;1.43;;;;;;;;;;4978876;28;88047;-64
2023/12/08 07:59:19;;;;;;;3.40;2.13;;;;;;;;;;4997022;28;87626;-65
2023/12/08 08:01:47;;;;;;;2.67;2.00;;;;;;;;;;4988226;28;89829;-67
2023/12/08 08:04:16;;;;;;;5.63;2.20;;;;;;;;;;4985912;28;88143;-67
2023/12/08 08:06:48;;;;;;;2.60;1.70;;;;;;;;;;4980611;28;88881;-68
2023/12/08 08:09:17;;;;;;;1.97;1.77;;;;;;;;;;4981252;28;87384;-66
2023/12/08 08:11:46;;;;;;;1.83;1.37;;;;;;;;;;4960649;28;88707;-67
2023/12/08 08:14:14;;;;;;;7.20;2.57;;;;;;;;;;4976469;28;89219;-66
2023/12/08 08:16:43;;;;;;;4.20;3.10;;;;;;;;;;4983068;28;88948;-67
2023/12/08 08:19:11;;;;;;;3.00;2.37;;;;;;;;;;4983626;28;87739;-68
2023/12/08 08:21:40;;;;;;;4.27;2.53;;;;;;;;;;4987937;28;89719;-67
2023/12/08 08:24:10;;;;;;;3.50;2.83;;;;;;;;;;4987876;28;88902;-65
2023/12/08 08:26:38;;;;;;;3.53;2.90;;;;;;;;;;4980408;28;88814;-67
2023/12/08 08:29:06;;;;;;;2.43;2.23;;;;;;;;;;4984278;28;87794;-65
2023/12/08 08:31:37;;;;;;;5.20;3.27;;;;;;;;;;4976912;28;89670;-65
2023/12/08 08:34:07;;;;;;;4.47;3.13;;;;;;;;;;4979159;28;89469;-65
2023/12/08 08:36:34;;;;;;;5.17;3.73;;;;;;;;;;4981168;28;88947;-65
2023/12/08 08:39:05;;;;;;;4.53;3.83;;;;;;;;;;4996385;28;87707;-65
2023/12/08 08:41:35;;;;;;;5.53;3.60;;;;;;;;;;4990841;28;89728;-65
2023/12/08 08:44:05;;;;;;;7.63;4.17;;;;;;;;;;4985641;28;88855;-65
2023/12/08 08:46:34;;;;;;;6.20;4.63;;;;;;;;;;4980485;28;88907;-65
2023/12/08 08:49:02;;;;;;;10.33;5.00;;;;;;;;;;4980893;28;87642;-64
2023/12/08 08:51:32;;;;;;;5.07;4.30;;;;;;;;;;4983901;28;89822;-64
2023/12/08 08:54:02;;;;;;;12.70;5.60;;;;;;;;;;4980573;28;88975;-65
2023/12/08 08:56:31;;;;;;;7.60;5.60;;;;;;;;;;4979675;28;90159;-64
2023/12/08 08:59:01;;;;;;;8.00;5.10;;;;;;;;;;4981170;28;87468;-65
2023/12/08 09:01:29;;;;;;;8.07;5.33;;;;;;;;;;4982545;28;92720;-64
2023/12/08 09:03:58;;;;;;;9.23;6.10;;;;;;;;;;4979486;28;89221;-65
2023/12/08 09:06:26;;;;;;;9.97;5.57;;;;;;;;;;4984599;28;88782;-64
2023/12/08 09:08:55;;;;;;;7.33;5.07;;;;;;;;;;4986122;28;87646;-69
2023/12/08 09:11:25;;;;;;;12.13;6.43;;;;;;;;;;4985088;28;92998;-69
2023/12/08 09:13:53;;;;;;;9.60;6.77;;;;;;;;;;4977379;28;87960;-71
2023/12/08 09:16:23;;;;;;;10.43;6.77;;;;;;;;;;4987806;28;88671;-68
2023/12/08 09:18:51;;;;;;;12.13;6.67;;;;;;;;;;4979390;28;87702;-70
2023/12/08 09:21:20;;;;;;;10.43;7.37;;;;;;;;;;4978930;28;89759;-72
2023/12/08 09:23:49;;;;;;;11.80;7.27;;;;;;;;;;4975897;28;88681;-64
2023/12/08 09:26:17;;;;;;;12.07;8.07;;;;;;;;;;4978044;28;88149;-64
2023/12/08 09:28:46;;;;;;;15.00;9.00;;;;;;;;;;4987393;28;87716;-63
2023/12/08 09:31:15;;;;;;;14.13;8.33;;;;;;;;;;4981608;28;89885;-65
2023/12/08 09:33:46;;;;;;;13.53;8.73;;;;;;;;;;4979830;28;89479;-63
2023/12/08 09:36:15;;;;;;;13.07;9.40;;;;;;;;;;4987745;28;89270;-65
2023/12/08 09:38:44;;;;;;;15.03;9.37;;;;;;;;;;4977408;28;87746;-65
2023/12/08 09:41:13;;;;;;;16.60;11.07;;;;;;;;;;4984427;28;89652;-63
2023/12/08 09:43:44;;;;;;;16.90;10.47;;;;;;;;;;4977031;28;89021;-63
2023/12/08 09:46:12;;;;;;;18.80;10.37;;;;;;;;;;4981928;28;88913;-63
2023/12/08 09:48:41;;;;;;;16.60;10.13;;;;;;;;;;4980964;28;87494;-63
2023/12/08 09:51:11;;;;;;;15.43;8.47;;;;;;;;;;4984507;28;89770;-63
2023/12/08 09:53:39;;;;;;;16.10;9.20;;;;;;;;;;4981957;28;89240;-63
2023/12/08 09:56:08;;;;;;;20.07;10.37;;;;;;;;;;4985843;28;88989;-63
2023/12/08 09:58:38;;;;;;;19.03;11.47;;;;;;;;;;4967328;28;88020;-62
2023/12/08 10:01:06;;;;;;;15.43;10.30;;;;;;;;;;4974205;28;88525;-63
2023/12/08 10:03:35;;;;;;;18.63;11.07;;;;;;;;;;4972036;28;89222;-63
2023/12/08 10:06:03;;;;;;;15.53;10.93;;;;;;;;;;4976778;28;87798;-63
2023/12/08 10:08:33;;;;;;;14.80;10.13;;;;;;;;;;4977238;28;87756;-63
2023/12/08 10:11:03;;;;;;;14.73;10.93;;;;;;;;;;4976650;28;89753;-63
2023/12/08 10:13:31;;;;;;;18.37;10.33;;;;;;;;;;4980561;28;89284;-63
2023/12/08 10:16:02;;;;;;;23.03;11.53;;;;;;;;;;4977553;28;88087;-63
2023/12/08 10:18:30;;;;;;;15.50;10.40;;;;;;;;;;4985140;28;87589;-63
2023/12/08 10:21:15;;;;;;;18.30;10.87;;;;;;;;;;4986798;28;88941;-63
2023/12/08 10:23:45;;;;;;;15.93;10.07;;;;;;;;;;4974441;28;89121;-63
2023/12/08 10:26:14;;;;;;;21.20;12.40;;;;;;;;;;4972188;28;88959;-63
2023/12/08 10:28:43;;;;;;;16.97;12.63;;;;;;;;;;4988436;28;87626;-63
2023/12/08 10:31:11;;;;;;;22.10;11.83;;;;;;;;;;4980107;28;89748;-63
2023/12/08 10:33:41;;;;;;;24.23;13.07;;;;;;;;;;4990757;28;89063;-62
2023/12/08 10:36:11;;;;;;;16.13;11.47;;;;;;;;;;4980110;28;87764;-63
2023/12/08 10:38:41;;;;;;;23.83;11.63;;;;;;;;;;4976138;28;87482;-63
2023/12/08 10:41:11;;;;;;;20.37;11.80;;;;;;;;;;4979553;28;89675;-63
2023/12/08 10:43:41;;;;;;;27.73;11.77;;;;;;;;;;4981812;28;89102;-63
2023/12/08 10:46:09;;;;;;;19.63;11.73;;;;;;;;;;4978956;28;89043;-63
2023/12/08 10:48:41;;;;;;;20.53;11.40;;;;;;;;;;4991525;28;88407;-63
2023/12/08 10:51:13;;;;;;;15.83;10.73;;;;;;;;;;4988268;28;89557;-62
2023/12/08 10:53:42;;;;;;;16.90;10.07;;;;;;;;;;4980611;28;89761;-63
2023/12/08 10:56:15;;;;;;;20.63;10.67;;;;;;;;;;4975735;28;87826;-63
2023/12/08 10:58:46;;;;;;;18.10;10.97;;;;;;;;;;4978828;28;87692;-63
2023/12/08 11:01:16;;;;;;;14.63;10.20;;;;;;;;;;4985013;28;90154;-64
2023/12/08 11:03:46;;;;;;;21.40;11.33;;;;;;;;;;4983414;28;89249;-63
2023/12/08 11:06:30;;;;;;;19.90;11.50;;;;;;;;;;4982569;28;87516;-64
2023/12/08 11:09:00;;;;;;;20.80;10.47;;;;;;;;;;4977378;28;88633;-63
2023/12/08 11:11:31;;;;;;;15.30;9.67;;;;;;;;;;4985876;28;90064;-63
2023/12/08 11:14:01;;;;;;;14.83;10.37;;;;;;;;;;4978468;28;89091;-63
2023/12/08 11:16:34;;;;;;;14.23;8.83;;;;;;;;;;4977224;28;88938;-63
2023/12/08 11:19:02;;;;;;;21.00;10.50;;;;;;;;;;4985166;28;88203;-63
2023/12/08 11:21:31;;;;;;;16.87;10.70;;;;;;;;;;4977821;28;89389;-65
2023/12/08 11:23:59;;;;;;;19.13;9.97;;;;;;;;;;4977618;28;89117;-64
2023/12/08 11:26:30;;;;;;;21.77;10.97;;;;;;;;;;4979231;28;88972;-64
2023/12/08 11:29:04;;;;;;;19.63;10.50;;;;;;;;;;4977484;28;87412;-62
2023/12/08 11:31:35;;;;;;;16.33;11.00;;;;;;;;;;4973868;28;92497;-64
2023/12/08 11:34:04;;;;;;;30.97;14.57;;;;;;;;;;4977313;28;89303;-64
2023/12/08 11:36:34;;;;;;;46.83;17.50;;;;;;;;;;4977867;28;88867;-68
2023/12/08 11:39:14;;;;;;;50.00;19.73;;;;;;;;;;4974331;28;88547;-62
2023/12/08 11:41:43;;;;;;;65.37;19.97;;;;;;;;;;4974667;28;89566;-65
2023/12/08 11:44:12;;;;;;;43.93;18.77;;;;;;;;;;4989426;28;89101;-62
2023/12/08 11:46:42;;;;;;;43.77;18.23;;;;;;;;;;4977988;28;89115;-71
2023/12/08 11:49:11;;;;;;;34.83;14.93;;;;;;;;;;4978154;28;88035;-67
2023/12/08 11:51:39;;;;;;;28.37;13.20;;;;;;;;;;4977726;28;89705;-70
2023/12/08 11:54:08;;;;;;;35.07;12.87;;;;;;;;;;4979320;28;89826;-69
2023/12/08 11:56:39;;;;;;;28.43;11.93;;;;;;;;;;4971539;28;88119;-72
2023/12/08 11:59:08;;;;;;;20.13;10.17;;;;;;;;;;4971633;28;87275;-70
2023/12/08 12:01:39;;;;;;;20.07;9.87;;;;;;;;;;4974562;28;90024;-65
2023/12/08 12:04:07;;;;;;;28.23;10.13;;;;;;;;;;4977158;28;89179;-68
2023/12/08 12:06:36;;;;;;;19.80;11.87;;;;;;;;;;4974941;28;90673;-67
2023/12/08 12:09:06;;;;;;;75.80;39.20;;;;;;;;;;4973410;28;88067;-69
2023/12/08 12:11:37;;;;;;;84.10;36.87;;;;;;;;;;4979063;28;89602;-69
2023/12/08 12:14:07;;;;;;;65.27;33.07;;;;;;;;;;4978660;28;88691;-70
2023/12/08 12:16:35;;;;;;;53.63;28.53;;;;;;;;;;4975942;28;88911;-71
2023/12/08 12:19:05;;;;;;;37.10;21.57;;;;;;;;;;4983280;28;87935;-69
2023/12/08 12:21:35;;;;;;;48.67;24.67;;;;;;;;;;4978894;28;89567;-74
2023/12/08 12:24:03;;;;;;;34.67;18.83;;;;;;;;;;4976746;28;88913;-66
2023/12/08 12:26:34;;;;;;;46.67;19.67;;;;;;;;;;4976921;28;89860;-68
2023/12/08 12:29:02;;;;;;;34.37;19.10;;;;;;;;;;4982206;28;87719;-68
2023/12/08 12:31:31;;;;;;;39.73;18.37;;;;;;;;;;4973225;28;89707;-64
2023/12/08 12:33:59;;;;;;;35.90;16.27;;;;;;;;;;4978062;28;89093;-66
2023/12/08 12:36:29;;;;;;;29.03;15.93;;;;;;;;;;4974062;28;89078;-66
2023/12/08 12:38:58;;;;;;;23.23;13.70;;;;;;;;;;4983168;28;87954;-67
2023/12/08 12:41:28;;;;;;;26.13;14.37;;;;;;;;;;4975131;28;88004;-68
2023/12/08 12:43:57;;;;;;;28.23;14.40;;;;;;;;;;4977767;28;89619;-67
2023/12/08 12:46:26;;;;;;;37.67;14.50;;;;;;;;;;4978500;28;88367;-68
2023/12/08 12:48:55;;;;;;;27.13;14.23;;;;;;;;;;4977487;28;88092;-68
2023/12/08 12:51:34;;;;;;;24.47;13.60;;;;;;;;;;4979781;28;89713;-66
2023/12/08 12:54:04;;;;;;;25.23;13.30;;;;;;;;;;4982756;28;89122;-70
2023/12/08 12:56:33;;;;;;;28.40;12.40;;;;;;;;;;4980194;28;88909;-69
2023/12/08 12:59:07;;;;;;;27.93;13.67;;;;;;;;;;4983452;28;87693;-69
2023/12/08 13:01:36;;;;;;;22.93;12.47;;;;;;;;;;4983130;28;89641;-68
2023/12/08 13:04:05;;;;;;;22.30;11.53;;;;;;;;;;4979550;28;89180;-70
2023/12/08 13:06:36;;;;;;;24.90;11.70;;;;;;;;;;4985993;28;89199;-69
2023/12/08 13:09:05;;;;;;;18.50;11.17;;;;;;;;;;4977316;28;87566;-68
2023/12/08 13:11:34;;;;;;;17.23;9.77;;;;;;;;;;4988501;28;88288;-67
2023/12/08 13:14:02;;;;;;;18.93;10.63;;;;;;;;;;4977136;28;89145;-68
2023/12/08 13:16:31;;;;;;;19.10;9.90;;;;;;;;;;4986890;28;90010;-68
2023/12/08 13:18:59;;;;;;;17.60;9.90;;;;;;;;;;4984450;28;87673;-68
2023/12/08 13:21:28;;;;;;;19.20;10.60;;;;;;;;;;4984172;28;89638;-67
2023/12/08 13:23:58;;;;;;;16.87;8.27;;;;;;;;;;4978064;28;87816;-68
2023/12/08 13:26:27;;;;;;;14.20;9.43;;;;;;;;;;4977938;28;89100;-67
2023/12/08 13:28:55;;;;;;;15.27;9.07;;;;;;;;;;4975221;28;87637;-72
2023/12/08 13:31:24;;;;;;;20.00;8.87;;;;;;;;;;4981232;28;90593;-70
2023/12/08 13:33:52;;;;;;;17.40;9.13;;;;;;;;;;4982598;28;88955;-69
2023/12/08 13:36:21;;;;;;;18.83;8.60;;;;;;;;;;4975727;28;88253;-68
2023/12/08 13:38:49;;;;;;;19.63;9.13;;;;;;;;;;4983722;28;88800;-70
2023/12/08 13:41:19;;;;;;;14.73;7.83;;;;;;;;;;4985734;28;90176;-70
2023/12/08 13:43:48;;;;;;;12.47;7.63;;;;;;;;;;4977261;28;89145;-70
2023/12/08 13:46:18;;;;;;;14.40;8.87;;;;;;;;;;4980498;28;88930;-70
2023/12/08 13:48:47;;;;;;;13.57;8.87;;;;;;;;;;4985397;28;89411;-69
2023/12/08 13:51:16;;;;;;;17.53;8.43;;;;;;;;;;4981249;28;89868;-69
2023/12/08 13:54:04;;;;;;;17.77;9.30;;;;;;;;;;4981658;28;91318;-70
2023/12/08 13:56:34;;;;;;;15.80;8.73;;;;;;;;;;4977114;28;87978;-70
2023/12/08 13:59:03;;;;;;;14.47;8.73;;;;;;;;;;4977651;28;88151;-69
2023/12/08 14:01:31;;;;;;;13.83;8.30;;;;;;;;;;4985660;28;89708;-69
2023/12/08 14:04:00;;;;;;;12.03;8.53;;;;;;;;;;4976499;28;89339;-69
2023/12/08 14:06:29;;;;;;;19.27;8.90;;;;;;;;;;4987343;28;93885;-69
2023/12/08 14:08:57;;;;;;;11.90;8.10;;;;;;;;;;4972563;28;87727;-69
2023/12/08 14:11:26;;;;;;;13.10;7.23;;;;;;;;;;4971883;28;89985;-69
2023/12/08 14:13:56;;;;;;;15.47;8.50;;;;;;;;;;4979206;28;89344;-70
2023/12/08 14:16:24;;;;;;;12.47;7.87;;;;;;;;;;4984835;28;89187;-70
2023/12/08 14:18:53;;;;;;;13.83;8.63;;;;;;;;;;4983106;28;87773;-70
2023/12/08 14:21:22;;;;;;;10.63;7.10;;;;;;;;;;4977425;28;89737;-68
2023/12/08 14:23:50;;;;;;;12.37;7.37;;;;;;;;;;4981823;28;90377;-68
2023/12/08 14:26:19;;;;;;;14.47;7.13;;;;;;;;;;4990042;28;90561;-67
2023/12/08 14:28:47;;;;;;;13.87;8.20;;;;;;;;;;4977110;28;87806;-66
2023/12/08 14:31:17;;;;;;;10.67;7.70;;;;;;;;;;4980832;28;89638;-65
2023/12/08 14:33:46;;;;;;;11.40;7.67;;;;;;;;;;4987426;28;89521;-65
2023/12/08 14:36:15;;;;;;;16.57;7.43;;;;;;;;;;4973742;28;88781;-66
2023/12/08 14:38:44;;;;;;;14.43;7.53;;;;;;;;;;4974125;28;89186;-66
2023/12/08 14:41:14;;;;;;;13.97;6.90;;;;;;;;;;4970783;28;89738;-75
2023/12/08 14:43:43;;;;;;;11.77;7.00;;;;;;;;;;4984251;28;89148;-73
2023/12/08 14:46:11;;;;;;;9.67;5.20;;;;;;;;;;4978207;28;89809;-73
2023/12/08 14:48:41;;;;;;;11.03;6.80;;;;;;;;;;4975454;28;87824;-74